Time;durP1;ratioP1;P1;durP2;ratioP2;P2;SDS_P1;SDS_P2;PMS_P1;PMS_P2;Temp;Humidity;BMP_temperature;BMP_pressure;BME280_temperature;BME280_humidity;BME280_pressure;Samples;Min_cycle;Max_cycle;Signal;HPM_P1;HPM_P2
2022/08/03 00:01:21;;;;;;;3.08;2.05;;;;;;;;;;5038251;28;20041;-68
2022/08/03 00:03:47;;;;;;;3.72;2.38;;;;;;;;;;5021977;28;20060;-68
2022/08/03 00:06:12;;;;;;;4.80;2.70;;;;;;;;;;5039934;28;20072;-68
2022/08/03 00:08:37;;;;;;;5.05;1.90;;;;;;;;;;5040174;28;20124;-67
2022/08/03 00:11:03;;;;;;;2.15;1.90;;;;;;;;;;5038954;28;20063;-68
2022/08/03 00:13:28;;;;;;;7.38;1.98;;;;;;;;;;5038684;28;20433;-66
2022/08/03 00:15:54;;;;;;;1.67;1.55;;;;;;;;;;5019974;28;20084;-69
2022/08/03 00:18:20;;;;;;;3.95;1.70;;;;;;;;;;5039873;28;20152;-67
2022/08/03 00:20:45;;;;;;;3.80;1.88;;;;;;;;;;5039797;28;20040;-67
2022/08/03 00:23:11;;;;;;;2.55;1.95;;;;;;;;;;5038316;28;20065;-67
2022/08/03 00:25:37;;;;;;;4.18;2.15;;;;;;;;;;5042713;28;20056;-67
2022/08/03 00:28:04;;;;;;;3.03;2.35;;;;;;;;;;5043658;28;20061;-67
2022/08/03 00:30:30;;;;;;;3.58;1.90;;;;;;;;;;5043475;28;20041;-69
2022/08/03 00:32:55;;;;;;;3.03;2.00;;;;;;;;;;5043053;28;20380;-66
2022/08/03 00:35:21;;;;;;;5.60;2.03;;;;;;;;;;5041962;28;20057;-68
2022/08/03 00:37:46;;;;;;;4.10;1.77;;;;;;;;;;5043407;28;20037;-68
2022/08/03 00:40:14;;;;;;;2.10;1.90;;;;;;;;;;5025763;28;20080;-67
2022/08/03 00:42:52;;;;;;;5.05;1.92;;;;;;;;;;5043075;28;20052;-66
2022/08/03 00:45:21;;;;;;;5.03;1.83;;;;;;;;;;5041302;28;20045;-67
2022/08/03 00:47:47;;;;;;;4.63;2.03;;;;;;;;;;5043350;28;20107;-67
2022/08/03 00:50:13;;;;;;;2.40;1.92;;;;;;;;;;5025560;28;20566;-67
2022/08/03 00:52:39;;;;;;;2.20;1.90;;;;;;;;;;5042739;28;20090;-67
2022/08/03 00:55:04;;;;;;;2.28;2.00;;;;;;;;;;5042485;28;20060;-68
2022/08/03 00:57:31;;;;;;;2.13;1.90;;;;;;;;;;5042544;28;20049;-68
2022/08/03 00:59:58;;;;;;;2.47;1.95;;;;;;;;;;5042791;28;20025;-67
2022/08/03 01:02:25;;;;;;;2.45;2.05;;;;;;;;;;5042789;28;20430;-67
2022/08/03 01:04:51;;;;;;;2.10;1.90;;;;;;;;;;5042990;28;20103;-68
2022/08/03 01:07:44;;;;;;;3.72;2.05;;;;;;;;;;5041367;28;20056;-70
2022/08/03 01:10:45;;;;;;;8.90;1.80;;;;;;;;;;5042700;28;20063;-69
2022/08/03 01:13:46;;;;;;;3.20;1.73;;;;;;;;;;4956174;28;20043;-67
2022/08/03 01:16:19;;;;;;;1.85;1.75;;;;;;;;;;5025162;28;20564;-67
2022/08/03 01:18:52;;;;;;;2.55;2.10;;;;;;;;;;5040226;28;20104;-67
2022/08/03 01:21:26;;;;;;;3.05;2.05;;;;;;;;;;5040780;28;20052;-67
2022/08/03 01:24:10;;;;;;;3.60;2.28;;;;;;;;;;5041383;28;20090;-67
2022/08/03 01:26:54;;;;;;;2.42;2.00;;;;;;;;;;5023331;28;20052;-68
2022/08/03 01:29:28;;;;;;;7.32;2.30;;;;;;;;;;5039999;28;20049;-67
2022/08/03 01:32:01;;;;;;;2.92;1.98;;;;;;;;;;5041173;28;20069;-67
2022/08/03 01:34:33;;;;;;;2.67;2.38;;;;;;;;;;5041243;28;20044;-67
2022/08/03 01:37:02;;;;;;;3.95;2.15;;;;;;;;;;5041293;28;20041;-68
2022/08/03 01:39:30;;;;;;;2.80;2.25;;;;;;;;;;5035639;28;20051;-68
2022/08/03 01:42:00;;;;;;;7.32;2.30;;;;;;;;;;5040643;28;20049;-69
2022/08/03 01:44:29;;;;;;;3.63;2.30;;;;;;;;;;5041132;28;20091;-67
2022/08/03 01:47:00;;;;;;;3.15;2.05;;;;;;;;;;5040918;28;20270;-69
2022/08/03 01:49:28;;;;;;;7.63;2.00;;;;;;;;;;5040612;28;20044;-68
2022/08/03 01:51:55;;;;;;;3.80;2.35;;;;;;;;;;5040593;28;20455;-68
2022/08/03 01:54:22;;;;;;;2.80;2.30;;;;;;;;;;5040746;28;20049;-68
2022/08/03 01:56:50;;;;;;;4.07;2.20;;;;;;;;;;5041074;28;20503;-68
2022/08/03 01:59:17;;;;;;;2.78;1.98;;;;;;;;;;5040656;28;20131;-68
2022/08/03 02:01:44;;;;;;;5.22;2.35;;;;;;;;;;5038975;28;20500;-68
2022/08/03 02:04:11;;;;;;;2.40;2.20;;;;;;;;;;5041275;28;20442;-69
2022/08/03 02:06:38;;;;;;;7.90;2.22;;;;;;;;;;5040907;28;20833;-69
2022/08/03 02:09:05;;;;;;;2.80;2.47;;;;;;;;;;5040341;28;20057;-67
2022/08/03 02:11:32;;;;;;;6.07;2.80;;;;;;;;;;5003259;28;1042192;-68
2022/08/03 02:13:59;;;;;;;3.63;2.60;;;;;;;;;;5041654;28;20511;-68
2022/08/03 02:16:26;;;;;;;5.25;2.88;;;;;;;;;;5041597;28;20045;-68
2022/08/03 02:18:52;;;;;;;2.95;2.55;;;;;;;;;;5041732;28;20135;-68
2022/08/03 02:21:18;;;;;;;3.88;3.05;;;;;;;;;;5040917;28;20063;-68
2022/08/03 02:23:44;;;;;;;3.88;2.63;;;;;;;;;;5040147;28;20045;-68
2022/08/03 02:26:14;;;;;;;5.10;2.80;;;;;;;;;;5041574;28;20048;-68
2022/08/03 02:28:42;;;;;;;4.40;2.63;;;;;;;;;;5041463;28;20036;-69
2022/08/03 02:31:15;;;;;;;2.75;2.47;;;;;;;;;;5040700;28;20072;-69
2022/08/03 02:33:46;;;;;;;5.00;2.95;;;;;;;;;;5039663;28;20049;-67
2022/08/03 02:36:15;;;;;;;2.72;2.50;;;;;;;;;;5041112;28;20519;-68
2022/08/03 02:38:43;;;;;;;6.32;2.72;;;;;;;;;;5041226;28;20106;-68
2022/08/03 02:41:15;;;;;;;3.10;2.50;;;;;;;;;;5022743;28;20151;-68
2022/08/03 02:43:41;;;;;;;;;;;;;;;;;;5041449;28;20114;-68
2022/08/03 02:46:09;;;;;;;5.07;2.53;;;;;;;;;;5040195;28;20385;-68
2022/08/03 02:48:37;;;;;;;2.92;2.60;;;;;;;;;;5040383;28;20044;-69
2022/08/03 02:51:03;;;;;;;3.50;2.67;;;;;;;;;;5040369;28;20053;-68
2022/08/03 02:53:30;;;;;;;4.18;2.95;;;;;;;;;;5040637;28;20040;-68
2022/08/03 02:55:58;;;;;;;3.70;3.08;;;;;;;;;;5040095;28;20044;-70
2022/08/03 02:58:24;;;;;;;4.13;2.60;;;;;;;;;;5040581;28;20511;-68
2022/08/03 03:00:51;;;;;;;4.38;2.75;;;;;;;;;;5041071;28;20138;-68
2022/08/03 03:03:17;;;;;;;4.18;2.63;;;;;;;;;;5039890;28;20043;-67
2022/08/03 03:05:43;;;;;;;3.38;2.72;;;;;;;;;;5040619;28;20117;-69
2022/08/03 03:08:12;;;;;;;8.43;2.92;;;;;;;;;;5039798;28;20519;-66
2022/08/03 03:10:39;;;;;;;3.88;3.20;;;;;;;;;;5040446;28;20052;-68
2022/08/03 03:13:06;;;;;;;3.90;3.15;;;;;;;;;;5039530;28;20583;-67
2022/08/03 03:15:34;;;;;;;5.35;3.00;;;;;;;;;;5023091;28;20056;-68
2022/08/03 03:18:00;;;;;;;4.63;2.72;;;;;;;;;;5039996;28;20045;-68
2022/08/03 03:20:27;;;;;;;3.13;2.70;;;;;;;;;;5040184;28;20949;-68
2022/08/03 03:22:54;;;;;;;4.25;2.53;;;;;;;;;;5040047;28;20633;-68
2022/08/03 03:25:20;;;;;;;5.13;3.15;;;;;;;;;;5039720;28;20246;-67
2022/08/03 03:27:48;;;;;;;4.28;3.10;;;;;;;;;;5040420;28;20076;-68
2022/08/03 03:30:14;;;;;;;6.95;3.20;;;;;;;;;;5039302;28;20073;-69
2022/08/03 03:32:40;;;;;;;5.28;3.70;;;;;;;;;;5039627;28;20492;-69
2022/08/03 03:35:06;;;;;;;3.50;3.20;;;;;;;;;;5039828;28;20049;-69
2022/08/03 03:37:32;;;;;;;3.92;3.15;;;;;;;;;;5040531;28;20068;-66
2022/08/03 03:39:57;;;;;;;4.22;3.22;;;;;;;;;;5036849;28;20360;-66
2022/08/03 03:42:24;;;;;;;6.32;3.58;;;;;;;;;;5039330;28;20091;-67
2022/08/03 03:44:50;;;;;;;4.97;3.45;;;;;;;;;;5040102;28;20055;-67
2022/08/03 03:47:16;;;;;;;4.95;3.40;;;;;;;;;;5040353;28;20041;-67
2022/08/03 03:49:42;;;;;;;4.88;3.40;;;;;;;;;;5037115;28;20053;-67
2022/08/03 03:52:08;;;;;;;3.72;3.40;;;;;;;;;;5038883;28;20045;-68
2022/08/03 03:54:44;;;;;;;6.63;3.03;;;;;;;;;;5040243;28;20053;-68
2022/08/03 03:57:10;;;;;;;3.20;2.78;;;;;;;;;;5039544;28;20053;-68
2022/08/03 03:59:42;;;;;;;3.25;2.92;;;;;;;;;;5041093;28;20056;-69
2022/08/03 04:02:09;;;;;;;3.10;2.65;;;;;;;;;;5024943;28;20103;-67
2022/08/03 04:13:01;;;;;;;2.70;2.50;;;;;;;;;;5041958;28;20045;-68
2022/08/03 04:15:29;;;;;;;4.78;2.40;;;;;;;;;;5042410;28;20056;-69
2022/08/03 04:17:57;;;;;;;3.30;2.15;;;;;;;;;;5043734;28;20076;-69
2022/08/03 04:20:25;;;;;;;2.83;2.42;;;;;;;;;;5043197;28;20483;-67
2022/08/03 04:22:52;;;;;;;1.90;1.80;;;;;;;;;;5024226;28;20041;-69
2022/08/03 04:25:20;;;;;;;5.30;2.10;;;;;;;;;;5042282;28;20056;-69
2022/08/03 04:27:48;;;;;;;2.22;2.00;;;;;;;;;;5043407;28;20507;-68
2022/08/03 04:30:14;;;;;;;1.75;1.65;;;;;;;;;;5042955;28;20051;-68
2022/08/03 04:32:42;;;;;;;2.25;1.83;;;;;;;;;;5042727;28;20045;-67
2022/08/03 04:35:08;;;;;;;2.22;2.00;;;;;;;;;;5020450;28;20503;-68
2022/08/03 04:37:38;;;;;;;1.67;1.58;;;;;;;;;;5043607;28;20060;-69
2022/08/03 04:40:08;;;;;;;1.98;1.88;;;;;;;;;;5043342;28;20056;-70
2022/08/03 04:42:34;;;;;;;2.05;1.85;;;;;;;;;;5042702;28;20045;-68
2022/08/03 04:45:02;;;;;;;4.72;2.05;;;;;;;;;;5044115;28;20041;-68
2022/08/03 04:47:31;;;;;;;2.90;1.67;;;;;;;;;;5024812;28;20060;-67
2022/08/03 04:49:57;;;;;;;2.03;1.60;;;;;;;;;;5043148;28;20774;-67
2022/08/03 04:52:23;;;;;;;2.47;1.73;;;;;;;;;;5042490;28;20041;-67
2022/08/03 04:54:48;;;;;;;3.85;1.90;;;;;;;;;;5043089;28;20502;-68
2022/08/03 04:57:14;;;;;;;2.28;1.65;;;;;;;;;;5040306;28;20047;-68
2022/08/03 04:59:39;;;;;;;2.95;1.88;;;;;;;;;;5034378;28;20105;-69
2022/08/03 05:02:05;;;;;;;3.85;2.08;;;;;;;;;;5040104;28;21015;-67
2022/08/03 05:04:31;;;;;;;3.22;2.10;;;;;;;;;;5042170;28;20083;-68
2022/08/03 05:06:56;;;;;;;2.05;1.85;;;;;;;;;;5040646;28;20132;-68
2022/08/03 05:09:22;;;;;;;2.00;1.90;;;;;;;;;;5041630;28;20122;-68
2022/08/03 05:11:47;;;;;;;1.98;1.80;;;;;;;;;;5041801;28;20123;-68
2022/08/03 05:14:13;;;;;;;4.88;1.80;;;;;;;;;;5041897;28;20064;-69
2022/08/03 05:16:38;;;;;;;1.70;1.60;;;;;;;;;;5041845;28;20043;-69
2022/08/03 05:19:03;;;;;;;3.83;1.65;;;;;;;;;;5040988;28;20053;-69
2022/08/03 05:21:29;;;;;;;1.50;1.40;;;;;;;;;;5024450;28;20043;-69
2022/08/03 05:23:54;;;;;;;1.48;1.30;;;;;;;;;;5035674;28;20044;-69
2022/08/03 05:26:20;;;;;;;1.60;1.50;;;;;;;;;;5040810;28;20438;-69
2022/08/03 05:28:45;;;;;;;1.58;1.48;;;;;;;;;;5041521;28;20514;-69
2022/08/03 05:31:12;;;;;;;1.30;1.20;;;;;;;;;;5041148;28;20049;-69
2022/08/03 05:33:38;;;;;;;3.30;1.40;;;;;;;;;;5040760;28;20049;-69
2022/08/03 05:36:04;;;;;;;6.75;1.80;;;;;;;;;;5039117;28;20079;-69
2022/08/03 05:38:30;;;;;;;1.58;1.48;;;;;;;;;;5040005;28;20103;-69
2022/08/03 05:40:57;;;;;;;2.95;1.45;;;;;;;;;;5039142;28;20068;-69
2022/08/03 05:43:22;;;;;;;3.30;1.30;;;;;;;;;;5039238;28;20041;-69
2022/08/03 05:45:48;;;;;;;4.00;1.38;;;;;;;;;;5039018;28;20037;-69
2022/08/03 05:48:13;;;;;;;1.75;1.30;;;;;;;;;;5040236;28;20053;-69
2022/08/03 05:50:38;;;;;;;1.10;1.10;;;;;;;;;;5040189;28;20102;-69
2022/08/03 05:53:04;;;;;;;3.13;1.42;;;;;;;;;;5040710;28;20037;-70
2022/08/03 05:55:29;;;;;;;3.05;1.20;;;;;;;;;;5041358;28;20048;-69
2022/08/03 05:57:55;;;;;;;2.28;1.40;;;;;;;;;;5040910;28;20041;-69
2022/08/03 06:00:20;;;;;;;2.45;1.30;;;;;;;;;;5041540;28;20053;-69
2022/08/03 06:02:46;;;;;;;1.30;1.20;;;;;;;;;;5040314;28;20053;-70
2022/08/03 06:05:11;;;;;;;1.85;1.30;;;;;;;;;;5040405;28;20090;-67
2022/08/03 06:07:37;;;;;;;1.50;1.40;;;;;;;;;;5040452;28;20660;-70
2022/08/03 06:10:04;;;;;;;5.45;1.45;;;;;;;;;;5041292;28;20135;-69
2022/08/03 06:12:29;;;;;;;3.20;1.30;;;;;;;;;;5040011;28;20044;-70
2022/08/03 06:14:56;;;;;;;3.17;1.33;;;;;;;;;;5041172;28;20060;-69
2022/08/03 06:17:21;;;;;;;4.05;1.38;;;;;;;;;;5021466;28;20091;-69
2022/08/03 06:19:47;;;;;;;1.30;1.20;;;;;;;;;;5040504;28;20407;-71
2022/08/03 06:22:12;;;;;;;3.75;1.33;;;;;;;;;;5021440;28;20045;-67
2022/08/03 06:24:38;;;;;;;1.52;1.42;;;;;;;;;;5038335;28;20159;-70
2022/08/03 06:27:03;;;;;;;1.75;1.40;;;;;;;;;;5037575;28;20040;-75
2022/08/03 06:29:29;;;;;;;2.30;1.15;;;;;;;;;;5039450;28;20047;-70
2022/08/03 06:31:54;;;;;;;3.38;1.30;;;;;;;;;;5038910;28;20418;-69
2022/08/03 06:34:20;;;;;;;3.97;1.10;;;;;;;;;;5040526;28;20049;-70
2022/08/03 06:36:47;;;;;;;5.60;1.42;;;;;;;;;;5037710;28;20053;-69
2022/08/03 06:39:12;;;;;;;3.60;1.30;;;;;;;;;;5039742;28;20143;-69
2022/08/03 06:41:38;;;;;;;3.28;1.58;;;;;;;;;;5040554;28;20435;-68
2022/08/03 06:44:07;;;;;;;3.30;1.55;;;;;;;;;;5022445;28;20573;-68
2022/08/03 06:46:32;;;;;;;3.55;1.60;;;;;;;;;;5038535;28;20049;-68
2022/08/03 06:48:58;;;;;;;1.63;1.27;;;;;;;;;;5039405;28;20033;-68
2022/08/03 06:51:23;;;;;;;2.53;1.40;;;;;;;;;;5022188;28;20128;-69
2022/08/03 06:53:49;;;;;;;1.30;1.20;;;;;;;;;;5039997;28;20045;-69
2022/08/03 06:56:14;;;;;;;1.83;1.40;;;;;;;;;;5036346;28;20049;-70
2022/08/03 06:58:40;;;;;;;1.95;1.17;;;;;;;;;;5038600;28;20403;-72
2022/08/03 07:01:05;;;;;;;2.20;1.50;;;;;;;;;;5039898;28;20056;-70
2022/08/03 07:03:30;;;;;;;2.05;1.30;;;;;;;;;;5039990;28;20053;-71
2022/08/03 07:05:56;;;;;;;3.58;1.38;;;;;;;;;;5039290;28;20036;-69
2022/08/03 07:08:23;;;;;;;2.83;1.40;;;;;;;;;;5038958;28;20135;-68
2022/08/03 07:10:48;;;;;;;6.13;1.20;;;;;;;;;;5040234;28;20570;-67
2022/08/03 07:13:14;;;;;;;1.77;1.30;;;;;;;;;;5039462;28;20760;-69
2022/08/03 07:15:39;;;;;;;1.30;1.20;;;;;;;;;;5039844;28;20041;-68
2022/08/03 07:18:05;;;;;;;1.35;1.20;;;;;;;;;;5014983;28;20407;-70
2022/08/03 07:20:31;;;;;;;1.30;1.20;;;;;;;;;;5039004;28;20047;-70
2022/08/03 07:22:56;;;;;;;4.90;1.40;;;;;;;;;;5036867;28;20052;-68
2022/08/03 07:25:22;;;;;;;1.17;1.17;;;;;;;;;;5039424;28;20265;-69
2022/08/03 07:27:47;;;;;;;1.60;1.50;;;;;;;;;;5039427;28;20514;-69
2022/08/03 07:30:14;;;;;;;2.33;1.30;;;;;;;;;;5038525;28;20415;-68
2022/08/03 07:32:40;;;;;;;1.58;1.20;;;;;;;;;;5020858;28;20041;-67
2022/08/03 07:35:06;;;;;;;3.55;1.25;;;;;;;;;;5038945;28;20779;-68
2022/08/03 07:37:32;;;;;;;2.13;1.17;;;;;;;;;;5039220;28;20048;-68
2022/08/03 07:39:59;;;;;;;1.20;1.08;;;;;;;;;;5022113;28;20044;-70
2022/08/03 07:42:26;;;;;;;2.38;1.30;;;;;;;;;;5038389;28;20037;-69
2022/08/03 07:44:51;;;;;;;2.17;1.20;;;;;;;;;;5039648;28;20060;-70
2022/08/03 07:47:28;;;;;;;2.13;1.15;;;;;;;;;;5038050;28;20036;-69
2022/08/03 07:49:54;;;;;;;2.70;1.27;;;;;;;;;;5039304;28;20045;-70
2022/08/03 07:55:06;;;;;;;3.00;1.10;;;;;;;;;;5037859;28;20048;-72
2022/08/03 07:57:31;;;;;;;1.42;1.10;;;;;;;;;;5034731;28;20132;-69
2022/08/03 07:59:57;;;;;;;3.15;1.20;;;;;;;;;;5034756;28;20047;-69
2022/08/03 08:02:22;;;;;;;4.63;1.20;;;;;;;;;;5035096;28;20047;-68
2022/08/03 08:04:48;;;;;;;2.47;1.08;;;;;;;;;;5038524;28;20048;-68
2022/08/03 08:07:13;;;;;;;2.67;1.20;;;;;;;;;;5020162;28;20514;-68
2022/08/03 08:09:39;;;;;;;3.22;1.17;;;;;;;;;;5039099;28;20053;-68
2022/08/03 08:12:06;;;;;;;1.23;0.95;;;;;;;;;;5038664;28;20092;-68
2022/08/03 08:14:32;;;;;;;3.03;1.05;;;;;;;;;;5038260;28;20049;-68
2022/08/03 08:16:58;;;;;;;1.42;1.17;;;;;;;;;;5038586;28;20132;-68
2022/08/03 08:19:23;;;;;;;2.65;1.15;;;;;;;;;;5036434;28;20053;-68
2022/08/03 08:21:49;;;;;;;6.22;1.10;;;;;;;;;;5037480;28;20048;-67
2022/08/03 08:24:14;;;;;;;6.95;1.75;;;;;;;;;;5037476;28;20053;-68
2022/08/03 08:26:39;;;;;;;3.05;1.17;;;;;;;;;;5036933;28;20106;-68
2022/08/03 08:29:05;;;;;;;1.75;1.10;;;;;;;;;;5037423;28;20049;-68
2022/08/03 08:31:31;;;;;;;2.65;1.27;;;;;;;;;;5037487;28;20060;-68
2022/08/03 08:33:56;;;;;;;1.30;1.17;;;;;;;;;;5038217;28;20048;-68
2022/08/03 08:36:22;;;;;;;1.05;0.95;;;;;;;;;;5035719;28;20064;-70
2022/08/03 08:38:48;;;;;;;1.88;1.08;;;;;;;;;;5038041;28;20072;-67
2022/08/03 08:41:14;;;;;;;2.10;1.20;;;;;;;;;;5036371;28;20471;-68
2022/08/03 08:43:41;;;;;;;1.48;0.85;;;;;;;;;;5037805;28;20124;-69
2022/08/03 08:46:10;;;;;;;2.13;0.80;;;;;;;;;;5038326;28;20053;-69
2022/08/03 08:48:40;;;;;;;0.73;0.73;;;;;;;;;;5041491;28;20131;-69
2022/08/03 08:51:07;;;;;;;2.95;0.90;;;;;;;;;;5039158;28;20041;-69
2022/08/03 08:53:35;;;;;;;0.90;0.75;;;;;;;;;;5040899;28;20075;-68
2022/08/03 08:56:01;;;;;;;1.60;0.70;;;;;;;;;;5040682;28;20088;-69
2022/08/03 08:58:33;;;;;;;1.08;0.80;;;;;;;;;;5040337;28;20044;-69
2022/08/03 09:00:59;;;;;;;1.13;0.90;;;;;;;;;;5041463;28;20040;-70
2022/08/03 09:03:24;;;;;;;2.53;0.90;;;;;;;;;;5038488;28;20060;-69
2022/08/03 09:05:50;;;;;;;1.88;0.73;;;;;;;;;;5041080;28;20056;-69
2022/08/03 09:08:15;;;;;;;1.17;1.08;;;;;;;;;;5040360;28;20049;-69
2022/08/03 09:10:41;;;;;;;3.70;1.00;;;;;;;;;;5040911;28;20041;-69
2022/08/03 09:13:07;;;;;;;0.93;0.93;;;;;;;;;;5039043;28;20049;-69
2022/08/03 09:15:32;;;;;;;3.20;0.95;;;;;;;;;;5040958;28;20139;-69
2022/08/03 09:18:00;;;;;;;3.28;1.10;;;;;;;;;;5040350;28;20056;-69
2022/08/03 09:20:28;;;;;;;1.33;0.90;;;;;;;;;;5039782;28;20107;-70
2022/08/03 09:23:03;;;;;;;0.93;0.85;;;;;;;;;;5041157;28;20102;-70
2022/08/03 09:25:34;;;;;;;1.45;0.90;;;;;;;;;;5040997;28;20049;-70
2022/08/03 09:28:12;;;;;;;1.10;1.00;;;;;;;;;;5023717;28;20051;-70
2022/08/03 09:30:43;;;;;;;0.70;0.70;;;;;;;;;;5041460;28;20136;-71
2022/08/03 09:33:11;;;;;;;1.00;0.90;;;;;;;;;;5040872;28;20069;-71
2022/08/03 09:35:48;;;;;;;1.27;0.90;;;;;;;;;;5024358;28;21159;-70
2022/08/03 09:38:16;;;;;;;3.25;0.90;;;;;;;;;;5039466;28;20925;-69
2022/08/03 09:40:43;;;;;;;2.75;0.90;;;;;;;;;;5040393;28;20843;-69
2022/08/03 09:43:09;;;;;;;2.97;0.85;;;;;;;;;;5038769;28;20045;-70
2022/08/03 09:45:36;;;;;;;0.95;0.80;;;;;;;;;;5041858;28;20052;-69
2022/08/03 09:48:23;;;;;;;1.20;1.00;;;;;;;;;;5040686;28;20052;-70
2022/08/03 09:50:53;;;;;;;1.10;1.00;;;;;;;;;;5032915;28;20037;-71
2022/08/03 09:53:19;;;;;;;0.90;0.90;;;;;;;;;;5024561;28;20121;-70
2022/08/03 09:55:56;;;;;;;2.78;0.80;;;;;;;;;;5022621;28;20057;-70
2022/08/03 09:58:27;;;;;;;4.88;1.23;;;;;;;;;;5042214;28;20049;-73
2022/08/03 10:00:58;;;;;;;3.58;1.10;;;;;;;;;;5024775;28;20060;-72
2022/08/03 10:03:26;;;;;;;1.20;0.88;;;;;;;;;;5039488;28;20053;-72
2022/08/03 10:05:53;;;;;;;1.95;0.90;;;;;;;;;;5044414;28;20049;-73
2022/08/03 10:08:19;;;;;;;1.13;0.75;;;;;;;;;;5041831;28;20095;-76
2022/08/03 10:10:47;;;;;;;0.88;0.88;;;;;;;;;;5041375;28;20045;-71
2022/08/03 10:13:14;;;;;;;0.98;0.68;;;;;;;;;;5039984;28;20499;-72
2022/08/03 10:15:40;;;;;;;2.88;1.00;;;;;;;;;;5039965;28;20048;-71
2022/08/03 10:18:06;;;;;;;3.65;0.85;;;;;;;;;;5040629;28;20056;-73
2022/08/03 10:20:36;;;;;;;4.80;1.10;;;;;;;;;;5041512;28;20052;-70
2022/08/03 10:23:04;;;;;;;3.72;0.90;;;;;;;;;;5041296;28;20131;-70
2022/08/03 10:25:31;;;;;;;0.70;0.70;;;;;;;;;;5039148;28;20083;-67
2022/08/03 10:28:00;;;;;;;2.00;0.70;;;;;;;;;;5038523;28;20500;-67
2022/08/03 10:30:27;;;;;;;2.17;0.85;;;;;;;;;;5037249;28;20029;-68
2022/08/03 10:33:01;;;;;;;1.98;0.80;;;;;;;;;;5035801;28;20036;-67
2022/08/03 10:35:28;;;;;;;0.88;0.80;;;;;;;;;;5033284;28;20176;-68
2022/08/03 10:37:59;;;;;;;0.80;0.80;;;;;;;;;;5035777;28;20892;-67
2022/08/03 10:40:30;;;;;;;0.63;0.63;;;;;;;;;;5017543;28;20066;-68
2022/08/03 10:43:08;;;;;;;0.60;0.60;;;;;;;;;;5036048;28;20098;-67
2022/08/03 10:45:40;;;;;;;0.77;0.57;;;;;;;;;;5038455;28;20094;-67
2022/08/03 10:48:07;;;;;;;0.63;0.60;;;;;;;;;;5035721;28;20503;-68
2022/08/03 10:50:33;;;;;;;1.35;0.57;;;;;;;;;;5035831;28;20107;-68
2022/08/03 10:53:01;;;;;;;0.90;0.80;;;;;;;;;;5036064;28;20041;-67
2022/08/03 10:58:35;;;;;;;0.70;0.57;;;;;;;;;;5035863;28;20074;-68
2022/08/03 11:01:02;;;;;;;0.60;0.60;;;;;;;;;;5035226;28;20045;-68
2022/08/03 11:03:27;;;;;;;1.23;0.65;;;;;;;;;;5018077;28;20134;-69
2022/08/03 11:05:55;;;;;;;0.50;0.50;;;;;;;;;;5035994;28;21121;-69
2022/08/03 11:08:35;;;;;;;0.60;0.52;;;;;;;;;;5036018;28;20110;-68
2022/08/03 11:11:23;;;;;;;1.10;0.73;;;;;;;;;;5036594;28;20822;-68
2022/08/03 11:14:09;;;;;;;1.27;0.50;;;;;;;;;;5005365;28;20041;-69
2022/08/03 11:16:37;;;;;;;0.60;0.60;;;;;;;;;;5036387;28;20134;-68
2022/08/03 11:19:08;;;;;;;0.55;0.55;;;;;;;;;;5037014;28;20431;-69
2022/08/03 11:21:48;;;;;;;0.68;0.68;;;;;;;;;;5036064;28;20067;-66
2022/08/03 11:24:36;;;;;;;1.50;0.63;;;;;;;;;;5037002;28;20084;-67
2022/08/03 11:27:13;;;;;;;1.13;0.80;;;;;;;;;;5035806;28;20033;-69
2022/08/03 11:30:16;;;;;;;2.53;0.60;;;;;;;;;;5017231;28;20052;-68
2022/08/03 11:32:47;;;;;;;1.40;0.85;;;;;;;;;;5035803;28;20040;-67
2022/08/03 11:35:34;;;;;;;0.57;0.57;;;;;;;;;;5035719;28;20140;-68
2022/08/03 11:38:04;;;;;;;0.65;0.65;;;;;;;;;;5034366;28;20051;-69
2022/08/03 11:40:52;;;;;;;0.60;0.60;;;;;;;;;;5035764;28;21092;-68
2022/08/03 11:43:21;;;;;;;2.35;0.60;;;;;;;;;;5033952;28;20033;-67
2022/08/03 11:46:02;;;;;;;0.50;0.50;;;;;;;;;;5034795;28;20069;-67
2022/08/03 11:48:37;;;;;;;12.30;0.75;;;;;;;;;;5038604;28;20406;-67
2022/08/03 11:51:26;;;;;;;0.63;0.60;;;;;;;;;;5039411;28;21089;-65
2022/08/03 11:53:52;;;;;;;0.60;0.60;;;;;;;;;;5021102;28;20060;-65
2022/08/03 11:56:18;;;;;;;1.00;0.50;;;;;;;;;;5038874;28;20075;-68
2022/08/03 11:58:53;;;;;;;0.70;0.68;;;;;;;;;;5039569;28;20044;-68
2022/08/03 12:01:20;;;;;;;0.50;0.50;;;;;;;;;;5039181;28;20092;-66
2022/08/03 12:03:45;;;;;;;0.50;0.50;;;;;;;;;;5038311;28;20049;-68
2022/08/03 12:06:13;;;;;;;0.70;0.50;;;;;;;;;;5038723;28;20115;-67
2022/08/03 12:08:41;;;;;;;0.75;0.70;;;;;;;;;;5039226;28;20084;-66
2022/08/03 12:11:09;;;;;;;1.48;0.57;;;;;;;;;;5038823;28;20052;-68
2022/08/03 12:13:46;;;;;;;4.13;0.70;;;;;;;;;;5039051;28;20475;-66
2022/08/03 12:16:19;;;;;;;2.17;0.80;;;;;;;;;;5037547;28;20053;-67
2022/08/03 12:18:53;;;;;;;0.88;0.80;;;;;;;;;;5039305;28;20052;-67
2022/08/03 12:21:23;;;;;;;1.55;0.70;;;;;;;;;;5041513;28;20057;-66
2022/08/03 12:23:48;;;;;;;0.60;0.60;;;;;;;;;;5043142;28;20049;-68
2022/08/03 12:26:14;;;;;;;0.93;0.75;;;;;;;;;;5042002;28;20053;-68
2022/08/03 12:28:47;;;;;;;0.80;0.70;;;;;;;;;;5041319;28;20048;-68
2022/08/03 12:31:12;;;;;;;0.93;0.65;;;;;;;;;;5042352;28;20053;-67
2022/08/03 12:34:01;;;;;;;0.75;0.70;;;;;;;;;;5042571;28;20060;-66
2022/08/03 12:36:28;;;;;;;1.20;0.50;;;;;;;;;;5041687;28;20058;-67
2022/08/03 12:38:56;;;;;;;0.85;0.60;;;;;;;;;;5042424;28;20049;-69
2022/08/03 12:41:37;;;;;;;0.75;0.50;;;;;;;;;;5042855;28;20618;-67
2022/08/03 12:44:04;;;;;;;2.15;0.60;;;;;;;;;;5043496;28;20048;-68
2022/08/03 12:46:40;;;;;;;0.65;0.63;;;;;;;;;;5042951;28;20057;-67
2022/08/03 12:49:18;;;;;;;3.30;0.82;;;;;;;;;;5042668;28;20833;-67
2022/08/03 12:51:44;;;;;;;2.25;0.70;;;;;;;;;;5024625;28;20037;-68
2022/08/03 12:54:20;;;;;;;1.08;0.60;;;;;;;;;;5043084;28;20048;-68
2022/08/03 12:57:11;;;;;;;2.67;0.70;;;;;;;;;;5041456;28;20495;-66
2022/08/03 12:59:41;;;;;;;0.75;0.75;;;;;;;;;;5021410;28;20060;-68
2022/08/03 13:02:17;;;;;;;0.80;0.80;;;;;;;;;;5041816;28;20586;-68
2022/08/03 13:04:44;;;;;;;0.47;0.47;;;;;;;;;;5042720;28;20041;-67
2022/08/03 13:07:10;;;;;;;0.60;0.52;;;;;;;;;;5041573;28;20045;-68
2022/08/03 13:09:42;;;;;;;1.23;0.77;;;;;;;;;;5040548;28;20527;-68
2022/08/03 13:12:09;;;;;;;0.85;0.70;;;;;;;;;;5041702;28;20549;-67
2022/08/03 13:14:35;;;;;;;2.58;0.50;;;;;;;;;;5041965;28;20103;-68
2022/08/03 13:17:01;;;;;;;0.80;0.60;;;;;;;;;;5041633;28;20044;-67
2022/08/03 13:19:26;;;;;;;1.85;0.60;;;;;;;;;;5041564;28;20061;-68
2022/08/03 13:21:52;;;;;;;0.55;0.55;;;;;;;;;;5040822;28;20051;-69
2022/08/03 13:24:18;;;;;;;1.20;0.63;;;;;;;;;;5042187;28;20082;-69
2022/08/03 13:26:44;;;;;;;1.42;0.77;;;;;;;;;;5041653;28;20041;-69
2022/08/03 13:29:09;;;;;;;1.45;0.65;;;;;;;;;;5041656;28;20124;-70
2022/08/03 13:31:35;;;;;;;1.17;0.75;;;;;;;;;;5040502;28;20078;-70
2022/08/03 13:34:00;;;;;;;1.00;0.70;;;;;;;;;;5041482;28;20052;-72
2022/08/03 13:36:26;;;;;;;3.15;0.60;;;;;;;;;;5041071;28;20056;-72
2022/08/03 13:38:52;;;;;;;3.40;0.80;;;;;;;;;;5042154;28;20036;-71
2022/08/03 13:41:17;;;;;;;1.45;0.70;;;;;;;;;;5040897;28;20772;-69
2022/08/03 13:43:42;;;;;;;0.77;0.63;;;;;;;;;;5040736;28;20530;-72
2022/08/03 13:46:08;;;;;;;0.60;0.60;;;;;;;;;;5040288;28;20052;-69
2022/08/03 13:48:33;;;;;;;0.60;0.60;;;;;;;;;;5042140;28;20048;-71
2022/08/03 13:50:59;;;;;;;3.15;0.57;;;;;;;;;;5041544;28;20049;-72
2022/08/03 13:53:24;;;;;;;1.27;0.60;;;;;;;;;;5040184;28;20048;-72
2022/08/03 13:55:50;;;;;;;0.63;0.60;;;;;;;;;;5041052;28;20053;-69
2022/08/03 13:58:15;;;;;;;1.20;0.73;;;;;;;;;;5041686;28;20051;-72
2022/08/03 14:00:41;;;;;;;1.20;0.70;;;;;;;;;;5041415;28;20041;-72
2022/08/03 14:03:06;;;;;;;0.50;0.50;;;;;;;;;;5041455;28;20049;-72
2022/08/03 14:05:32;;;;;;;1.08;0.60;;;;;;;;;;5039899;28;20051;-69
2022/08/03 14:07:59;;;;;;;1.48;0.60;;;;;;;;;;5041162;28;20143;-72
2022/08/03 14:10:25;;;;;;;2.05;0.60;;;;;;;;;;5041229;28;20131;-70
2022/08/03 14:12:50;;;;;;;1.20;0.70;;;;;;;;;;5040220;28;21138;-71
2022/08/03 14:15:16;;;;;;;4.75;0.70;;;;;;;;;;5021612;28;20052;-70
2022/08/03 14:17:41;;;;;;;1.00;0.80;;;;;;;;;;5040456;28;20092;-73
2022/08/03 14:20:08;;;;;;;0.85;0.77;;;;;;;;;;5023450;28;20053;-71
2022/08/03 14:22:33;;;;;;;0.50;0.50;;;;;;;;;;5040658;28;20048;-71
2022/08/03 14:24:59;;;;;;;5.20;0.70;;;;;;;;;;5041365;28;20040;-71
2022/08/03 14:27:24;;;;;;;0.68;0.68;;;;;;;;;;5037266;28;20063;-70
2022/08/03 14:29:49;;;;;;;1.42;0.75;;;;;;;;;;5021908;28;20045;-71
2022/08/03 14:32:15;;;;;;;3.55;0.73;;;;;;;;;;5039848;28;20041;-70
2022/08/03 14:34:40;;;;;;;2.85;0.68;;;;;;;;;;5040649;28;20224;-73
2022/08/03 14:37:06;;;;;;;3.17;0.70;;;;;;;;;;5039630;28;20982;-71
2022/08/03 14:39:31;;;;;;;5.10;0.73;;;;;;;;;;5040127;28;20076;-71
2022/08/03 14:41:57;;;;;;;0.77;0.73;;;;;;;;;;5040929;28;20487;-73
2022/08/03 14:44:22;;;;;;;0.93;0.77;;;;;;;;;;5039880;28;20075;-72
2022/08/03 14:46:47;;;;;;;3.70;0.60;;;;;;;;;;5039780;28;20036;-68
2022/08/03 14:49:13;;;;;;;2.95;0.65;;;;;;;;;;5039112;28;20063;-71
2022/08/03 14:51:39;;;;;;;1.88;0.70;;;;;;;;;;5040169;28;20507;-70
2022/08/03 14:54:04;;;;;;;1.20;0.60;;;;;;;;;;5040341;28;20236;-70
2022/08/03 14:56:30;;;;;;;5.15;0.60;;;;;;;;;;5039778;28;20077;-72
2022/08/03 14:58:55;;;;;;;3.03;0.68;;;;;;;;;;5041316;28;20152;-72
2022/08/03 15:01:20;;;;;;;2.00;0.70;;;;;;;;;;5039394;28;20052;-71
2022/08/03 15:03:47;;;;;;;1.23;0.50;;;;;;;;;;5039846;28;20118;-71